sensor_id;sensor_type;location;lat;lon;timestamp;P1;durP1;ratioP1;P2;durP2;ratioP2
74626;SDS011;63132;52.268;5.192;2023-12-07T00:01:02;52.27;;;22.77;;
74626;SDS011;63132;52.268;5.192;2023-12-07T00:03:28;52.55;;;23.45;;
74626;SDS011;63132;52.268;5.192;2023-12-07T00:05:53;50.77;;;24.40;;
74626;SDS011;63132;52.268;5.192;2023-12-07T00:08:19;50.57;;;25.60;;
74626;SDS011;63132;52.268;5.192;2023-12-07T00:10:44;52.13;;;25.17;;
74626;SDS011;63132;52.268;5.192;2023-12-07T00:13:09;53.20;;;23.90;;
74626;SDS011;63132;52.268;5.192;2023-12-07T00:15:35;51.10;;;22.50;;
74626;SDS011;63132;52.268;5.192;2023-12-07T00:18:00;54.07;;;24.20;;
74626;SDS011;63132;52.268;5.192;2023-12-07T00:20:25;55.93;;;25.63;;
74626;SDS011;63132;52.268;5.192;2023-12-07T00:22:51;55.72;;;23.02;;
74626;SDS011;63132;52.268;5.192;2023-12-07T00:25:16;54.83;;;25.33;;
74626;SDS011;63132;52.268;5.192;2023-12-07T00:27:41;49.67;;;23.93;;
74626;SDS011;63132;52.268;5.192;2023-12-07T00:30:07;52.00;;;23.80;;
74626;SDS011;63132;52.268;5.192;2023-12-07T00:32:33;49.15;;;22.30;;
74626;SDS011;63132;52.268;5.192;2023-12-07T00:34:59;47.90;;;23.00;;
74626;SDS011;63132;52.268;5.192;2023-12-07T00:37:24;52.77;;;23.37;;
74626;SDS011;63132;52.268;5.192;2023-12-07T00:39:50;50.33;;;22.73;;
74626;SDS011;63132;52.268;5.192;2023-12-07T00:42:15;46.07;;;22.97;;
74626;SDS011;63132;52.268;5.192;2023-12-07T00:44:40;54.60;;;24.57;;
74626;SDS011;63132;52.268;5.192;2023-12-07T00:47:06;52.08;;;24.30;;
74626;SDS011;63132;52.268;5.192;2023-12-07T00:49:31;53.73;;;24.17;;
74626;SDS011;63132;52.268;5.192;2023-12-07T00:51:57;56.00;;;23.77;;
74626;SDS011;63132;52.268;5.192;2023-12-07T00:54:22;49.90;;;24.10;;
74626;SDS011;63132;52.268;5.192;2023-12-07T00:56:47;54.43;;;25.47;;
74626;SDS011;63132;52.268;5.192;2023-12-07T00:59:13;58.77;;;25.20;;
74626;SDS011;63132;52.268;5.192;2023-12-07T01:01:38;54.07;;;24.60;;
74626;SDS011;63132;52.268;5.192;2023-12-07T01:04:04;57.37;;;24.10;;
74626;SDS011;63132;52.268;5.192;2023-12-07T01:06:30;50.10;;;23.95;;
74626;SDS011;63132;52.268;5.192;2023-12-07T01:08:56;54.28;;;24.25;;
74626;SDS011;63132;52.268;5.192;2023-12-07T01:11:22;58.23;;;25.37;;
74626;SDS011;63132;52.268;5.192;2023-12-07T01:13:47;57.93;;;25.10;;
74626;SDS011;63132;52.268;5.192;2023-12-07T01:16:12;57.57;;;25.00;;
74626;SDS011;63132;52.268;5.192;2023-12-07T01:18:37;58.23;;;26.63;;
74626;SDS011;63132;52.268;5.192;2023-12-07T01:21:03;60.23;;;24.83;;
74626;SDS011;63132;52.268;5.192;2023-12-07T01:23:28;57.17;;;24.38;;
74626;SDS011;63132;52.268;5.192;2023-12-07T01:25:54;58.07;;;24.83;;
74626;SDS011;63132;52.268;5.192;2023-12-07T01:28:19;55.80;;;25.03;;
74626;SDS011;63132;52.268;5.192;2023-12-07T01:30:44;53.13;;;25.13;;
74626;SDS011;63132;52.268;5.192;2023-12-07T01:33:09;55.33;;;25.93;;
74626;SDS011;63132;52.268;5.192;2023-12-07T01:35:35;48.80;;;23.13;;
74626;SDS011;63132;52.268;5.192;2023-12-07T01:38:00;57.60;;;25.97;;
74626;SDS011;63132;52.268;5.192;2023-12-07T01:40:25;56.40;;;25.33;;
74626;SDS011;63132;52.268;5.192;2023-12-07T01:42:53;48.67;;;22.83;;
74626;SDS011;63132;52.268;5.192;2023-12-07T01:45:19;54.20;;;23.83;;
74626;SDS011;63132;52.268;5.192;2023-12-07T01:47:45;52.58;;;24.77;;
74626;SDS011;63132;52.268;5.192;2023-12-07T01:50:12;53.55;;;25.30;;
74626;SDS011;63132;52.268;5.192;2023-12-07T01:52:40;52.80;;;24.08;;
74626;SDS011;63132;52.268;5.192;2023-12-07T01:55:12;54.47;;;24.48;;
74626;SDS011;63132;52.268;5.192;2023-12-07T01:57:39;56.58;;;24.38;;
74626;SDS011;63132;52.268;5.192;2023-12-07T02:00:06;53.30;;;25.42;;
74626;SDS011;63132;52.268;5.192;2023-12-07T02:04:57;52.90;;;22.85;;
74626;SDS011;63132;52.268;5.192;2023-12-07T02:07:23;52.70;;;25.73;;
74626;SDS011;63132;52.268;5.192;2023-12-07T02:09:49;47.80;;;22.50;;
74626;SDS011;63132;52.268;5.192;2023-12-07T02:12:14;52.85;;;23.80;;
74626;SDS011;63132;52.268;5.192;2023-12-07T02:14:39;52.47;;;21.90;;
74626;SDS011;63132;52.268;5.192;2023-12-07T02:17:14;52.07;;;22.70;;
74626;SDS011;63132;52.268;5.192;2023-12-07T02:19:52;56.35;;;24.15;;
74626;SDS011;63132;52.268;5.192;2023-12-07T02:22:24;52.47;;;22.88;;
74626;SDS011;63132;52.268;5.192;2023-12-07T02:25:10;48.35;;;22.10;;
74626;SDS011;63132;52.268;5.192;2023-12-07T02:27:42;49.53;;;23.08;;
74626;SDS011;63132;52.268;5.192;2023-12-07T02:30:11;49.70;;;22.33;;
74626;SDS011;63132;52.268;5.192;2023-12-07T02:32:37;44.28;;;21.63;;
74626;SDS011;63132;52.268;5.192;2023-12-07T02:35:04;50.88;;;23.50;;
74626;SDS011;63132;52.268;5.192;2023-12-07T02:37:32;50.22;;;22.30;;
74626;SDS011;63132;52.268;5.192;2023-12-07T02:40:02;46.72;;;22.13;;
74626;SDS011;63132;52.268;5.192;2023-12-07T02:42:29;47.58;;;22.20;;
74626;SDS011;63132;52.268;5.192;2023-12-07T02:44:56;52.17;;;20.95;;
74626;SDS011;63132;52.268;5.192;2023-12-07T02:47:22;51.25;;;22.63;;
74626;SDS011;63132;52.268;5.192;2023-12-07T02:49:47;47.03;;;21.35;;
74626;SDS011;63132;52.268;5.192;2023-12-07T02:52:13;49.07;;;21.37;;
74626;SDS011;63132;52.268;5.192;2023-12-07T02:54:38;44.87;;;21.57;;
74626;SDS011;63132;52.268;5.192;2023-12-07T02:57:04;42.40;;;20.20;;
74626;SDS011;63132;52.268;5.192;2023-12-07T02:59:29;47.40;;;20.85;;
74626;SDS011;63132;52.268;5.192;2023-12-07T03:01:54;45.50;;;20.50;;
74626;SDS011;63132;52.268;5.192;2023-12-07T03:04:20;42.37;;;19.53;;
74626;SDS011;63132;52.268;5.192;2023-12-07T03:06:45;48.13;;;20.23;;
74626;SDS011;63132;52.268;5.192;2023-12-07T03:09:10;46.83;;;20.43;;
74626;SDS011;63132;52.268;5.192;2023-12-07T03:11:36;49.50;;;21.85;;
74626;SDS011;63132;52.268;5.192;2023-12-07T03:14:01;47.13;;;20.70;;
74626;SDS011;63132;52.268;5.192;2023-12-07T03:16:27;42.92;;;20.27;;
74626;SDS011;63132;52.268;5.192;2023-12-07T03:18:52;46.10;;;19.90;;
74626;SDS011;63132;52.268;5.192;2023-12-07T03:21:17;43.33;;;18.80;;
74626;SDS011;63132;52.268;5.192;2023-12-07T03:23:43;39.60;;;19.40;;
74626;SDS011;63132;52.268;5.192;2023-12-07T03:26:08;45.33;;;20.40;;
74626;SDS011;63132;52.268;5.192;2023-12-07T03:28:33;46.27;;;21.03;;
74626;SDS011;63132;52.268;5.192;2023-12-07T03:30:59;45.05;;;20.42;;
74626;SDS011;63132;52.268;5.192;2023-12-07T03:33:24;45.03;;;19.58;;
74626;SDS011;63132;52.268;5.192;2023-12-07T03:35:50;44.37;;;20.87;;
74626;SDS011;63132;52.268;5.192;2023-12-07T03:38:15;42.77;;;19.50;;
74626;SDS011;63132;52.268;5.192;2023-12-07T03:40:40;41.57;;;20.13;;
74626;SDS011;63132;52.268;5.192;2023-12-07T03:43:06;36.20;;;19.20;;
74626;SDS011;63132;52.268;5.192;2023-12-07T03:45:31;39.10;;;19.13;;
74626;SDS011;63132;52.268;5.192;2023-12-07T03:47:56;43.97;;;20.70;;
74626;SDS011;63132;52.268;5.192;2023-12-07T03:50:21;42.00;;;20.03;;
74626;SDS011;63132;52.268;5.192;2023-12-07T03:52:47;42.37;;;19.50;;
74626;SDS011;63132;52.268;5.192;2023-12-07T03:55:12;46.77;;;19.97;;
74626;SDS011;63132;52.268;5.192;2023-12-07T03:57:37;44.80;;;20.00;;
74626;SDS011;63132;52.268;5.192;2023-12-07T04:00:03;42.10;;;20.40;;
74626;SDS011;63132;52.268;5.192;2023-12-07T04:02:32;41.72;;;19.95;;
74626;SDS011;63132;52.268;5.192;2023-12-07T04:04:58;44.58;;;20.02;;
74626;SDS011;63132;52.268;5.192;2023-12-07T04:07:26;38.40;;;19.27;;
74626;SDS011;63132;52.268;5.192;2023-12-07T04:09:52;45.08;;;20.38;;
74626;SDS011;63132;52.268;5.192;2023-12-07T04:12:17;40.30;;;18.73;;
74626;SDS011;63132;52.268;5.192;2023-12-07T04:14:43;40.33;;;20.43;;
74626;SDS011;63132;52.268;5.192;2023-12-07T04:17:08;42.80;;;20.90;;
74626;SDS011;63132;52.268;5.192;2023-12-07T04:19:33;40.30;;;20.23;;
74626;SDS011;63132;52.268;5.192;2023-12-07T04:21:59;47.72;;;20.45;;
74626;SDS011;63132;52.268;5.192;2023-12-07T04:24:25;48.38;;;20.05;;
74626;SDS011;63132;52.268;5.192;2023-12-07T04:26:50;48.47;;;21.00;;
74626;SDS011;63132;52.268;5.192;2023-12-07T04:29:15;42.30;;;19.60;;
74626;SDS011;63132;52.268;5.192;2023-12-07T04:31:41;42.33;;;20.37;;
74626;SDS011;63132;52.268;5.192;2023-12-07T04:34:06;45.43;;;20.37;;
74626;SDS011;63132;52.268;5.192;2023-12-07T04:36:31;42.53;;;19.83;;
74626;SDS011;63132;52.268;5.192;2023-12-07T04:38:56;48.67;;;21.33;;
74626;SDS011;63132;52.268;5.192;2023-12-07T04:41:22;45.17;;;20.70;;
74626;SDS011;63132;52.268;5.192;2023-12-07T04:43:47;41.30;;;19.13;;
74626;SDS011;63132;52.268;5.192;2023-12-07T04:46:12;43.07;;;19.07;;
74626;SDS011;63132;52.268;5.192;2023-12-07T04:48:37;45.90;;;19.63;;
74626;SDS011;63132;52.268;5.192;2023-12-07T04:51:03;43.13;;;21.17;;
74626;SDS011;63132;52.268;5.192;2023-12-07T04:53:29;49.17;;;20.55;;
74626;SDS011;63132;52.268;5.192;2023-12-07T04:55:54;53.65;;;22.70;;
74626;SDS011;63132;52.268;5.192;2023-12-07T04:58:20;44.13;;;20.67;;
74626;SDS011;63132;52.268;5.192;2023-12-07T05:00:45;49.07;;;22.60;;
74626;SDS011;63132;52.268;5.192;2023-12-07T05:03:10;54.20;;;22.53;;
74626;SDS011;63132;52.268;5.192;2023-12-07T05:05:36;61.63;;;24.10;;
74626;SDS011;63132;52.268;5.192;2023-12-07T05:08:01;54.80;;;24.63;;
74626;SDS011;63132;52.268;5.192;2023-12-07T05:10:26;54.67;;;25.40;;
74626;SDS011;63132;52.268;5.192;2023-12-07T05:12:52;46.37;;;22.97;;
74626;SDS011;63132;52.268;5.192;2023-12-07T05:15:17;57.60;;;25.43;;
74626;SDS011;63132;52.268;5.192;2023-12-07T05:17:42;54.33;;;26.33;;
74626;SDS011;63132;52.268;5.192;2023-12-07T05:20:08;58.20;;;26.27;;
74626;SDS011;63132;52.268;5.192;2023-12-07T05:22:34;64.05;;;27.15;;
74626;SDS011;63132;52.268;5.192;2023-12-07T05:24:59;56.67;;;26.57;;
74626;SDS011;63132;52.268;5.192;2023-12-07T05:27:25;55.22;;;25.92;;
74626;SDS011;63132;52.268;5.192;2023-12-07T05:29:50;57.13;;;26.40;;
74626;SDS011;63132;52.268;5.192;2023-12-07T05:32:15;65.03;;;25.83;;
74626;SDS011;63132;52.268;5.192;2023-12-07T05:34:41;64.23;;;27.27;;
74626;SDS011;63132;52.268;5.192;2023-12-07T05:37:07;61.28;;;26.73;;
74626;SDS011;63132;52.268;5.192;2023-12-07T05:39:32;60.90;;;26.10;;
74626;SDS011;63132;52.268;5.192;2023-12-07T05:41:57;57.93;;;27.77;;
74626;SDS011;63132;52.268;5.192;2023-12-07T05:44:22;64.20;;;27.60;;
74626;SDS011;63132;52.268;5.192;2023-12-07T05:46:48;61.97;;;28.30;;
74626;SDS011;63132;52.268;5.192;2023-12-07T05:49:14;60.92;;;28.55;;
74626;SDS011;63132;52.268;5.192;2023-12-07T05:51:40;62.50;;;27.27;;
74626;SDS011;63132;52.268;5.192;2023-12-07T05:54:05;62.83;;;30.07;;
74626;SDS011;63132;52.268;5.192;2023-12-07T05:56:31;66.83;;;29.87;;
74626;SDS011;63132;52.268;5.192;2023-12-07T05:58:56;63.90;;;32.15;;
74626;SDS011;63132;52.268;5.192;2023-12-07T06:01:22;64.03;;;30.67;;
74626;SDS011;63132;52.268;5.192;2023-12-07T06:03:47;66.57;;;29.25;;
74626;SDS011;63132;52.268;5.192;2023-12-07T06:06:12;61.97;;;29.13;;
74626;SDS011;63132;52.268;5.192;2023-12-07T06:08:38;64.00;;;30.53;;
74626;SDS011;63132;52.268;5.192;2023-12-07T06:11:04;72.78;;;31.60;;
74626;SDS011;63132;52.268;5.192;2023-12-07T06:13:29;74.13;;;30.67;;
74626;SDS011;63132;52.268;5.192;2023-12-07T06:15:55;70.03;;;34.25;;
74626;SDS011;63132;52.268;5.192;2023-12-07T06:18:20;84.97;;;33.23;;
74626;SDS011;63132;52.268;5.192;2023-12-07T06:20:45;88.03;;;35.97;;
74626;SDS011;63132;52.268;5.192;2023-12-07T06:23:10;80.30;;;34.00;;
74626;SDS011;63132;52.268;5.192;2023-12-07T06:25:38;83.05;;;34.10;;
74626;SDS011;63132;52.268;5.192;2023-12-07T06:28:04;73.93;;;32.90;;
74626;SDS011;63132;52.268;5.192;2023-12-07T06:30:29;77.63;;;35.60;;
74626;SDS011;63132;52.268;5.192;2023-12-07T06:32:55;97.82;;;34.53;;
74626;SDS011;63132;52.268;5.192;2023-12-07T06:35:20;78.43;;;33.47;;
74626;SDS011;63132;52.268;5.192;2023-12-07T06:37:46;82.35;;;34.10;;
74626;SDS011;63132;52.268;5.192;2023-12-07T06:40:11;82.03;;;32.63;;
74626;SDS011;63132;52.268;5.192;2023-12-07T06:42:37;72.70;;;31.77;;
74626;SDS011;63132;52.268;5.192;2023-12-07T06:45:03;84.10;;;31.85;;
74626;SDS011;63132;52.268;5.192;2023-12-07T06:47:29;68.60;;;31.27;;
74626;SDS011;63132;52.268;5.192;2023-12-07T06:49:54;82.40;;;31.07;;
74626;SDS011;63132;52.268;5.192;2023-12-07T06:52:20;68.57;;;31.48;;
74626;SDS011;63132;52.268;5.192;2023-12-07T06:54:46;71.63;;;30.83;;
74626;SDS011;63132;52.268;5.192;2023-12-07T06:57:11;74.10;;;31.57;;
74626;SDS011;63132;52.268;5.192;2023-12-07T06:59:37;63.78;;;30.10;;
74626;SDS011;63132;52.268;5.192;2023-12-07T07:02:03;64.10;;;31.03;;
74626;SDS011;63132;52.268;5.192;2023-12-07T07:04:29;66.80;;;31.20;;
74626;SDS011;63132;52.268;5.192;2023-12-07T07:06:54;73.28;;;31.88;;
74626;SDS011;63132;52.268;5.192;2023-12-07T07:09:20;65.95;;;30.52;;
74626;SDS011;63132;52.268;5.192;2023-12-07T07:11:48;66.65;;;29.38;;
74626;SDS011;63132;52.268;5.192;2023-12-07T07:14:14;83.55;;;32.53;;
74626;SDS011;63132;52.268;5.192;2023-12-07T07:19:06;73.30;;;29.63;;
74626;SDS011;63132;52.268;5.192;2023-12-07T07:21:31;73.75;;;31.88;;
74626;SDS011;63132;52.268;5.192;2023-12-07T07:23:57;67.25;;;30.63;;
74626;SDS011;63132;52.268;5.192;2023-12-07T07:26:22;83.68;;;33.28;;
74626;SDS011;63132;52.268;5.192;2023-12-07T07:28:50;83.22;;;30.30;;
74626;SDS011;63132;52.268;5.192;2023-12-07T07:33:41;71.60;;;28.70;;
74626;SDS011;63132;52.268;5.192;2023-12-07T07:36:07;68.70;;;28.60;;
74626;SDS011;63132;52.268;5.192;2023-12-07T07:38:32;98.93;;;30.55;;
74626;SDS011;63132;52.268;5.192;2023-12-07T07:40:57;75.40;;;29.23;;
74626;SDS011;63132;52.268;5.192;2023-12-07T07:43:23;69.67;;;28.17;;
74626;SDS011;63132;52.268;5.192;2023-12-07T07:45:48;73.43;;;28.83;;
74626;SDS011;63132;52.268;5.192;2023-12-07T07:48:13;73.33;;;28.87;;
74626;SDS011;63132;52.268;5.192;2023-12-07T07:50:38;69.93;;;29.43;;
74626;SDS011;63132;52.268;5.192;2023-12-07T07:53:04;64.77;;;29.13;;
74626;SDS011;63132;52.268;5.192;2023-12-07T07:55:30;73.10;;;30.33;;
74626;SDS011;63132;52.268;5.192;2023-12-07T07:57:56;67.43;;;29.58;;
74626;SDS011;63132;52.268;5.192;2023-12-07T08:00:21;74.23;;;27.53;;
74626;SDS011;63132;52.268;5.192;2023-12-07T08:02:46;76.53;;;29.57;;
74626;SDS011;63132;52.268;5.192;2023-12-07T08:05:12;59.33;;;27.73;;
74626;SDS011;63132;52.268;5.192;2023-12-07T08:07:37;61.67;;;28.02;;
74626;SDS011;63132;52.268;5.192;2023-12-07T08:10:05;69.65;;;28.90;;
74626;SDS011;63132;52.268;5.192;2023-12-07T08:12:31;63.22;;;28.85;;
74626;SDS011;63132;52.268;5.192;2023-12-07T08:14:56;65.27;;;27.63;;
74626;SDS011;63132;52.268;5.192;2023-12-07T08:17:21;70.47;;;26.80;;
74626;SDS011;63132;52.268;5.192;2023-12-07T08:19:47;97.13;;;27.03;;
74626;SDS011;63132;52.268;5.192;2023-12-07T08:22:12;63.00;;;28.60;;
74626;SDS011;63132;52.268;5.192;2023-12-07T08:24:38;74.30;;;27.05;;
74626;SDS011;63132;52.268;5.192;2023-12-07T08:29:30;68.43;;;27.02;;
74626;SDS011;63132;52.268;5.192;2023-12-07T08:31:55;66.38;;;28.40;;
74626;SDS011;63132;52.268;5.192;2023-12-07T08:34:20;83.57;;;29.43;;
74626;SDS011;63132;52.268;5.192;2023-12-07T08:36:46;108.03;;;29.30;;
74626;SDS011;63132;52.268;5.192;2023-12-07T08:39:11;88.30;;;27.00;;
74626;SDS011;63132;52.268;5.192;2023-12-07T08:41:36;61.73;;;26.33;;
74626;SDS011;63132;52.268;5.192;2023-12-07T08:44:02;56.08;;;25.20;;
74626;SDS011;63132;52.268;5.192;2023-12-07T08:46:28;53.22;;;25.98;;
74626;SDS011;63132;52.268;5.192;2023-12-07T08:48:53;65.67;;;27.90;;
74626;SDS011;63132;52.268;5.192;2023-12-07T08:51:19;59.10;;;27.00;;
74626;SDS011;63132;52.268;5.192;2023-12-07T08:53:44;68.18;;;25.98;;
74626;SDS011;63132;52.268;5.192;2023-12-07T08:56:10;55.80;;;24.58;;
74626;SDS011;63132;52.268;5.192;2023-12-07T08:58:37;50.15;;;23.55;;
74626;SDS011;63132;52.268;5.192;2023-12-07T09:01:03;58.95;;;24.63;;
74626;SDS011;63132;52.268;5.192;2023-12-07T09:03:30;54.15;;;25.63;;
74626;SDS011;63132;52.268;5.192;2023-12-07T09:08:22;74.25;;;24.80;;
74626;SDS011;63132;52.268;5.192;2023-12-07T09:10:47;72.10;;;23.23;;
74626;SDS011;63132;52.268;5.192;2023-12-07T09:13:14;45.63;;;22.02;;
74626;SDS011;63132;52.268;5.192;2023-12-07T09:15:40;47.33;;;22.08;;
74626;SDS011;63132;52.268;5.192;2023-12-07T09:18:05;46.33;;;23.90;;
74626;SDS011;63132;52.268;5.192;2023-12-07T09:20:31;49.57;;;24.50;;
74626;SDS011;63132;52.268;5.192;2023-12-07T09:22:56;47.83;;;23.63;;
74626;SDS011;63132;52.268;5.192;2023-12-07T09:25:22;40.97;;;20.90;;
74626;SDS011;63132;52.268;5.192;2023-12-07T09:27:48;56.70;;;21.80;;
74626;SDS011;63132;52.268;5.192;2023-12-07T09:30:13;49.30;;;21.30;;
74626;SDS011;63132;52.268;5.192;2023-12-07T09:32:42;52.80;;;21.30;;
74626;SDS011;63132;52.268;5.192;2023-12-07T09:35:08;43.75;;;21.13;;
74626;SDS011;63132;52.268;5.192;2023-12-07T09:37:43;53.83;;;19.63;;
74626;SDS011;63132;52.268;5.192;2023-12-07T09:40:14;43.13;;;20.17;;
74626;SDS011;63132;52.268;5.192;2023-12-07T09:42:42;37.65;;;19.92;;
74626;SDS011;63132;52.268;5.192;2023-12-07T09:45:08;45.70;;;19.60;;
74626;SDS011;63132;52.268;5.192;2023-12-07T09:47:34;38.15;;;18.38;;
74626;SDS011;63132;52.268;5.192;2023-12-07T09:50:02;40.83;;;20.75;;
74626;SDS011;63132;52.268;5.192;2023-12-07T09:52:28;47.83;;;18.50;;
74626;SDS011;63132;52.268;5.192;2023-12-07T09:54:54;40.33;;;18.48;;
74626;SDS011;63132;52.268;5.192;2023-12-07T09:57:21;45.95;;;18.13;;
74626;SDS011;63132;52.268;5.192;2023-12-07T09:59:47;39.45;;;17.08;;
74626;SDS011;63132;52.268;5.192;2023-12-07T10:02:13;36.63;;;16.77;;
74626;SDS011;63132;52.268;5.192;2023-12-07T10:04:38;35.67;;;17.20;;
74626;SDS011;63132;52.268;5.192;2023-12-07T10:07:04;36.70;;;16.92;;
74626;SDS011;63132;52.268;5.192;2023-12-07T10:09:34;40.92;;;15.75;;
74626;SDS011;63132;52.268;5.192;2023-12-07T10:12:03;32.80;;;15.60;;
74626;SDS011;63132;52.268;5.192;2023-12-07T10:14:30;32.13;;;15.48;;
74626;SDS011;63132;52.268;5.192;2023-12-07T10:16:55;38.95;;;14.73;;
74626;SDS011;63132;52.268;5.192;2023-12-07T10:19:21;28.52;;;14.10;;
74626;SDS011;63132;52.268;5.192;2023-12-07T10:21:48;40.13;;;13.15;;
74626;SDS011;63132;52.268;5.192;2023-12-07T10:24:15;27.77;;;12.68;;
74626;SDS011;63132;52.268;5.192;2023-12-07T10:29:07;25.37;;;12.07;;
74626;SDS011;63132;52.268;5.192;2023-12-07T10:31:33;26.37;;;12.00;;
74626;SDS011;63132;52.268;5.192;2023-12-07T10:36:25;26.25;;;11.57;;
74626;SDS011;63132;52.268;5.192;2023-12-07T10:38:51;24.98;;;12.90;;
74626;SDS011;63132;52.268;5.192;2023-12-07T10:41:17;27.02;;;12.50;;
74626;SDS011;63132;52.268;5.192;2023-12-07T10:43:44;24.30;;;12.65;;
74626;SDS011;63132;52.268;5.192;2023-12-07T10:46:16;26.05;;;12.48;;
74626;SDS011;63132;52.268;5.192;2023-12-07T10:48:45;28.90;;;12.82;;
74626;SDS011;63132;52.268;5.192;2023-12-07T10:51:15;26.17;;;11.75;;
74626;SDS011;63132;52.268;5.192;2023-12-07T10:53:48;21.35;;;11.75;;
74626;SDS011;63132;52.268;5.192;2023-12-07T10:56:16;32.42;;;11.85;;
74626;SDS011;63132;52.268;5.192;2023-12-07T10:58:52;27.30;;;10.75;;
74626;SDS011;63132;52.268;5.192;2023-12-07T11:01:20;23.35;;;11.13;;
74626;SDS011;63132;52.268;5.192;2023-12-07T11:03:48;21.95;;;10.15;;
74626;SDS011;63132;52.268;5.192;2023-12-07T11:06:15;21.75;;;11.13;;
74626;SDS011;63132;52.268;5.192;2023-12-07T11:08:43;23.52;;;10.35;;
74626;SDS011;63132;52.268;5.192;2023-12-07T11:13:59;26.52;;;9.02;;
74626;SDS011;63132;52.268;5.192;2023-12-07T11:16:32;18.90;;;9.27;;
74626;SDS011;63132;52.268;5.192;2023-12-07T11:19:00;20.27;;;8.48;;
74626;SDS011;63132;52.268;5.192;2023-12-07T11:21:26;20.98;;;10.35;;
74626;SDS011;63132;52.268;5.192;2023-12-07T11:23:54;23.80;;;10.25;;
74626;SDS011;63132;52.268;5.192;2023-12-07T11:26:23;19.58;;;8.68;;
74626;SDS011;63132;52.268;5.192;2023-12-07T11:28:49;18.90;;;9.32;;
74626;SDS011;63132;52.268;5.192;2023-12-07T11:31:14;23.97;;;9.97;;
74626;SDS011;63132;52.268;5.192;2023-12-07T11:33:41;23.67;;;9.95;;
74626;SDS011;63132;52.268;5.192;2023-12-07T11:36:08;21.02;;;10.45;;
74626;SDS011;63132;52.268;5.192;2023-12-07T11:38:37;21.23;;;9.88;;
74626;SDS011;63132;52.268;5.192;2023-12-07T11:41:04;39.70;;;10.98;;
74626;SDS011;63132;52.268;5.192;2023-12-07T11:45:58;18.70;;;8.98;;
74626;SDS011;63132;52.268;5.192;2023-12-07T11:48:23;19.60;;;9.35;;
74626;SDS011;63132;52.268;5.192;2023-12-07T11:50:56;18.73;;;9.68;;
74626;SDS011;63132;52.268;5.192;2023-12-07T11:53:32;19.23;;;9.57;;
74626;SDS011;63132;52.268;5.192;2023-12-07T11:56:00;20.08;;;9.38;;
74626;SDS011;63132;52.268;5.192;2023-12-07T11:58:27;18.98;;;8.98;;
74626;SDS011;63132;52.268;5.192;2023-12-07T12:00:54;20.75;;;10.40;;
74626;SDS011;63132;52.268;5.192;2023-12-07T12:03:21;20.23;;;10.30;;
74626;SDS011;63132;52.268;5.192;2023-12-07T12:05:49;22.25;;;10.80;;
74626;SDS011;63132;52.268;5.192;2023-12-07T12:08:18;27.53;;;12.17;;
74626;SDS011;63132;52.268;5.192;2023-12-07T12:10:44;25.48;;;10.57;;
74626;SDS011;63132;52.268;5.192;2023-12-07T12:13:11;23.42;;;10.45;;
74626;SDS011;63132;52.268;5.192;2023-12-07T12:15:37;26.23;;;11.80;;
74626;SDS011;63132;52.268;5.192;2023-12-07T12:18:04;23.42;;;11.95;;
74626;SDS011;63132;52.268;5.192;2023-12-07T12:22:57;24.00;;;11.50;;
74626;SDS011;63132;52.268;5.192;2023-12-07T12:25:23;28.42;;;11.73;;
74626;SDS011;63132;52.268;5.192;2023-12-07T12:27:56;28.58;;;11.93;;
74626;SDS011;63132;52.268;5.192;2023-12-07T12:30:31;26.45;;;12.52;;
74626;SDS011;63132;52.268;5.192;2023-12-07T12:32:59;25.27;;;11.40;;
74626;SDS011;63132;52.268;5.192;2023-12-07T12:37:50;23.42;;;11.05;;
74626;SDS011;63132;52.268;5.192;2023-12-07T12:40:16;26.53;;;12.33;;
74626;SDS011;63132;52.268;5.192;2023-12-07T12:42:47;26.60;;;11.77;;
74626;SDS011;63132;52.268;5.192;2023-12-07T12:45:16;25.83;;;10.52;;
74626;SDS011;63132;52.268;5.192;2023-12-07T12:47:43;27.85;;;11.50;;
74626;SDS011;63132;52.268;5.192;2023-12-07T12:50:10;25.83;;;12.20;;
74626;SDS011;63132;52.268;5.192;2023-12-07T12:52:57;29.40;;;13.30;;
74626;SDS011;63132;52.268;5.192;2023-12-07T12:55:25;31.30;;;13.32;;
74626;SDS011;63132;52.268;5.192;2023-12-07T12:57:50;28.33;;;12.70;;
74626;SDS011;63132;52.268;5.192;2023-12-07T13:00:16;28.23;;;10.80;;
74626;SDS011;63132;52.268;5.192;2023-12-07T13:02:41;34.38;;;12.63;;
74626;SDS011;63132;52.268;5.192;2023-12-07T13:05:07;31.17;;;13.07;;
74626;SDS011;63132;52.268;5.192;2023-12-07T13:07:32;35.67;;;12.98;;
74626;SDS011;63132;52.268;5.192;2023-12-07T13:09:57;39.57;;;14.47;;
74626;SDS011;63132;52.268;5.192;2023-12-07T13:12:23;36.10;;;13.60;;
74626;SDS011;63132;52.268;5.192;2023-12-07T13:14:48;31.30;;;12.97;;
74626;SDS011;63132;52.268;5.192;2023-12-07T13:17:14;34.65;;;12.35;;
74626;SDS011;63132;52.268;5.192;2023-12-07T13:19:39;36.57;;;14.70;;
74626;SDS011;63132;52.268;5.192;2023-12-07T13:22:04;34.40;;;14.33;;
74626;SDS011;63132;52.268;5.192;2023-12-07T13:24:29;32.37;;;13.87;;
74626;SDS011;63132;52.268;5.192;2023-12-07T13:26:55;39.20;;;13.77;;
74626;SDS011;63132;52.268;5.192;2023-12-07T13:29:23;38.70;;;15.38;;
74626;SDS011;63132;52.268;5.192;2023-12-07T13:31:48;37.88;;;15.90;;
74626;SDS011;63132;52.268;5.192;2023-12-07T13:34:14;38.10;;;15.20;;
74626;SDS011;63132;52.268;5.192;2023-12-07T13:36:39;37.17;;;15.37;;
74626;SDS011;63132;52.268;5.192;2023-12-07T13:39:05;42.57;;;16.77;;
74626;SDS011;63132;52.268;5.192;2023-12-07T13:41:30;39.83;;;15.40;;
74626;SDS011;63132;52.268;5.192;2023-12-07T13:43:55;44.43;;;16.77;;
74626;SDS011;63132;52.268;5.192;2023-12-07T13:46:21;41.60;;;15.70;;
74626;SDS011;63132;52.268;5.192;2023-12-07T13:48:46;41.67;;;16.42;;
74626;SDS011;63132;52.268;5.192;2023-12-07T13:51:12;41.42;;;17.20;;
74626;SDS011;63132;52.268;5.192;2023-12-07T13:53:38;45.13;;;17.50;;
74626;SDS011;63132;52.268;5.192;2023-12-07T13:56:03;45.33;;;17.50;;
74626;SDS011;63132;52.268;5.192;2023-12-07T13:58:30;47.22;;;18.95;;
74626;SDS011;63132;52.268;5.192;2023-12-07T14:03:21;49.13;;;19.87;;
74626;SDS011;63132;52.268;5.192;2023-12-07T14:05:46;46.23;;;17.97;;
74626;SDS011;63132;52.268;5.192;2023-12-07T14:08:12;51.92;;;19.13;;
74626;SDS011;63132;52.268;5.192;2023-12-07T14:10:37;46.13;;;19.63;;
74626;SDS011;63132;52.268;5.192;2023-12-07T14:13:03;44.27;;;20.93;;
74626;SDS011;63132;52.268;5.192;2023-12-07T14:15:29;51.20;;;20.77;;
74626;SDS011;63132;52.268;5.192;2023-12-07T14:17:54;49.00;;;21.53;;
74626;SDS011;63132;52.268;5.192;2023-12-07T14:20:19;53.43;;;20.57;;
74626;SDS011;63132;52.268;5.192;2023-12-07T14:22:49;54.20;;;23.02;;
74626;SDS011;63132;52.268;5.192;2023-12-07T14:25:14;50.07;;;21.50;;
74626;SDS011;63132;52.268;5.192;2023-12-07T14:27:41;48.42;;;21.05;;
74626;SDS011;63132;52.268;5.192;2023-12-07T14:30:06;55.57;;;24.80;;
74626;SDS011;63132;52.268;5.192;2023-12-07T14:32:32;52.65;;;23.45;;
74626;SDS011;63132;52.268;5.192;2023-12-07T14:34:57;54.17;;;23.83;;
74626;SDS011;63132;52.268;5.192;2023-12-07T14:37:23;54.25;;;24.33;;
74626;SDS011;63132;52.268;5.192;2023-12-07T14:39:48;51.80;;;22.97;;
74626;SDS011;63132;52.268;5.192;2023-12-07T14:42:13;62.80;;;27.73;;
74626;SDS011;63132;52.268;5.192;2023-12-07T14:44:39;55.80;;;25.30;;